If you wish to contribute or participate in the discussions about articles you are invited to join SKYbrary as a registered user

 Actions

Homer Airport

From SKYbrary Wiki

PAHO
Airport
ICAO: PAHO
Summary
Name Homer Airport
Region North America
Territory Alaska US.gif
Location Homer
Serving
Coordinates 59° 38' 44.00" N, 151° 28' 35.00" W
Runways
Designator Length Width Surface ROPS
3/21 2042 m6,699.475 ft
46 m150.919 ft
ASP yes/yes


METAR
Observation PAHO 191753Z 00000KT 10SM -RA SCT039 BKN048 OVC080 04/03 A2948 RMK AO2 SLP983 P0009 60019 T00390033 10039 20006 51009
Station Homer, Homer Airport
Date/Time 19 October 2019 17:53:00
Wind direction
Wind speed 00 kts
Lowest cloud amount scattered clouds
Temperature 3.9°C
Dew point 3.3°C
Humidity 95%
QNH hPa
Weather condition light rain

BS
Tag(s) Bird Strike
BS
Tag(s) Non Avian Wildlife Hazards to Aircraft
CFIT
Tag(s) Altimeter Temperature Error Correction

Homer Airport

ICAO: PAHO IATA: HOM

Description

Regional airport serving Homer, Alaska.

Climatology

Cool continental climate/Subarctic climate (Köppen climate classification Dfc)

Maps

Terrain

Loading map...

Airport Layout

Loading map...


Accidents & Serious Incidents at or in vicinity of PAHO

None on SKYbrary